sensor_id;sensor_type;location;lat;lon;timestamp;pressure;altitude;pressure_sealevel;temperature;humidity
11395;BME280;5753;54.402;10.220;2023-05-27T00:00:24;103032.81;;;21.92;41.49
11395;BME280;5753;54.402;10.220;2023-05-27T00:02:50;103021.28;;;21.58;42.56
11395;BME280;5753;54.402;10.220;2023-05-27T00:05:17;103036.09;;;21.45;42.67
11395;BME280;5753;54.402;10.220;2023-05-27T00:07:43;103037.97;;;21.71;42.36
11395;BME280;5753;54.402;10.220;2023-05-27T00:10:09;103052.25;;;22.34;40.70
11395;BME280;5753;54.402;10.220;2023-05-27T00:12:35;103031.41;;;21.03;43.84
11395;BME280;5753;54.402;10.220;2023-05-27T00:15:02;103024.78;;;20.46;45.40
11395;BME280;5753;54.402;10.220;2023-05-27T00:17:28;103040.91;;;20.87;44.49
11395;BME280;5753;54.402;10.220;2023-05-27T00:19:54;103057.03;;;21.38;43.41
11395;BME280;5753;54.402;10.220;2023-05-27T00:22:20;103054.16;;;21.07;43.95
11395;BME280;5753;54.402;10.220;2023-05-27T00:24:47;103045.91;;;20.63;45.00
11395;BME280;5753;54.402;10.220;2023-05-27T00:27:13;103039.41;;;20.29;45.59
11395;BME280;5753;54.402;10.220;2023-05-27T00:29:39;103049.47;;;20.72;44.71
11395;BME280;5753;54.402;10.220;2023-05-27T00:32:05;103045.47;;;21.14;43.94
11395;BME280;5753;54.402;10.220;2023-05-27T00:34:32;103045.25;;;20.87;44.08
11395;BME280;5753;54.402;10.220;2023-05-27T00:37:00;103041.06;;;21.12;44.11
11395;BME280;5753;54.402;10.220;2023-05-27T00:39:26;103045.53;;;20.32;45.63
11395;BME280;5753;54.402;10.220;2023-05-27T00:41:52;103043.97;;;21.44;43.48
11395;BME280;5753;54.402;10.220;2023-05-27T00:44:18;103035.94;;;21.25;43.14
11395;BME280;5753;54.402;10.220;2023-05-27T00:46:48;103027.13;;;21.19;43.28
11395;BME280;5753;54.402;10.220;2023-05-27T00:49:14;103034.81;;;20.93;44.31
11395;BME280;5753;54.402;10.220;2023-05-27T00:51:41;103041.91;;;21.06;43.92
11395;BME280;5753;54.402;10.220;2023-05-27T00:54:10;103037.78;;;21.37;42.75
11395;BME280;5753;54.402;10.220;2023-05-27T00:56:36;103033.16;;;21.04;43.28
11395;BME280;5753;54.402;10.220;2023-05-27T00:59:03;103032.59;;;21.43;42.89
11395;BME280;5753;54.402;10.220;2023-05-27T01:01:29;103031.69;;;21.40;42.70
11395;BME280;5753;54.402;10.220;2023-05-27T01:03:57;103039.13;;;20.83;43.89
11395;BME280;5753;54.402;10.220;2023-05-27T01:14:43;103036.56;;;20.94;44.17
11395;BME280;5753;54.402;10.220;2023-05-27T01:17:12;103041.09;;;21.16;43.55
11395;BME280;5753;54.402;10.220;2023-05-27T01:19:41;103041.38;;;21.50;43.10
11395;BME280;5753;54.402;10.220;2023-05-27T01:22:12;103037.59;;;21.13;44.35
11395;BME280;5753;54.402;10.220;2023-05-27T01:24:38;103030.41;;;20.86;44.16
11395;BME280;5753;54.402;10.220;2023-05-27T01:27:07;103028.66;;;20.88;44.19
11395;BME280;5753;54.402;10.220;2023-05-27T01:29:35;103037.56;;;21.10;43.51
11395;BME280;5753;54.402;10.220;2023-05-27T01:33:03;103019.16;;;21.02;43.25
11395;BME280;5753;54.402;10.220;2023-05-27T01:37:39;103027.75;;;20.84;44.24
11395;BME280;5753;54.402;10.220;2023-05-27T01:40:08;103028.50;;;20.72;44.16
11395;BME280;5753;54.402;10.220;2023-05-27T01:42:36;103028.66;;;20.88;44.19
11395;BME280;5753;54.402;10.220;2023-05-27T01:45:05;103023.19;;;20.62;45.29
11395;BME280;5753;54.402;10.220;2023-05-27T01:47:32;103022.22;;;20.52;45.39
11395;BME280;5753;54.402;10.220;2023-05-27T01:50:00;103031.97;;;20.68;44.69
11395;BME280;5753;54.402;10.220;2023-05-27T01:52:26;103033.47;;;20.42;45.14
11395;BME280;5753;54.402;10.220;2023-05-27T01:54:52;103026.31;;;20.30;45.93
11395;BME280;5753;54.402;10.220;2023-05-27T01:57:19;103026.91;;;20.03;46.29
11395;BME280;5753;54.402;10.220;2023-05-27T01:59:46;103029.84;;;19.60;47.30
11395;BME280;5753;54.402;10.220;2023-05-27T02:02:12;103022.91;;;20.34;45.95
11395;BME280;5753;54.402;10.220;2023-05-27T02:04:38;103023.28;;;20.75;44.57
11395;BME280;5753;54.402;10.220;2023-05-27T02:07:04;103020.53;;;20.60;44.66
11395;BME280;5753;54.402;10.220;2023-05-27T02:09:31;103025.09;;;19.96;46.66
11395;BME280;5753;54.402;10.220;2023-05-27T02:11:57;103025.78;;;20.60;44.71
11395;BME280;5753;54.402;10.220;2023-05-27T02:14:23;103021.81;;;20.16;46.05
11395;BME280;5753;54.402;10.220;2023-05-27T02:16:49;103021.44;;;20.61;44.93
11395;BME280;5753;54.402;10.220;2023-05-27T02:19:16;103026.63;;;20.55;44.83
11395;BME280;5753;54.402;10.220;2023-05-27T02:21:43;103030.22;;;19.87;46.07
11395;BME280;5753;54.402;10.220;2023-05-27T02:24:09;103036.56;;;20.09;45.82
11395;BME280;5753;54.402;10.220;2023-05-27T02:26:35;103020.34;;;19.68;46.81
11395;BME280;5753;54.402;10.220;2023-05-27T02:29:01;103021.66;;;20.03;46.28
11395;BME280;5753;54.402;10.220;2023-05-27T02:31:27;103024.78;;;20.45;45.27
11395;BME280;5753;54.402;10.220;2023-05-27T02:33:53;103019.31;;;20.29;45.06
11395;BME280;5753;54.402;10.220;2023-05-27T02:36:19;103017.91;;;20.57;44.32
11395;BME280;5753;54.402;10.220;2023-05-27T02:38:47;103014.91;;;20.24;45.86
11395;BME280;5753;54.402;10.220;2023-05-27T02:41:13;103010.31;;;20.03;46.30
11395;BME280;5753;54.402;10.220;2023-05-27T02:43:39;103019.22;;;20.20;45.70
11395;BME280;5753;54.402;10.220;2023-05-27T02:46:05;103027.50;;;20.55;44.70
11395;BME280;5753;54.402;10.220;2023-05-27T02:48:31;103013.59;;;20.65;44.24
11395;BME280;5753;54.402;10.220;2023-05-27T02:50:57;103012.25;;;20.21;45.11
11395;BME280;5753;54.402;10.220;2023-05-27T02:53:23;103009.63;;;20.21;45.72
11395;BME280;5753;54.402;10.220;2023-05-27T02:55:50;103016.19;;;20.59;44.89
11395;BME280;5753;54.402;10.220;2023-05-27T02:58:16;103026.63;;;20.58;45.03
11395;BME280;5753;54.402;10.220;2023-05-27T03:00:43;103012.31;;;20.28;45.84
11395;BME280;5753;54.402;10.220;2023-05-27T03:03:09;103014.97;;;19.57;47.67
11395;BME280;5753;54.402;10.220;2023-05-27T03:05:35;103011.19;;;20.03;46.63
11395;BME280;5753;54.402;10.220;2023-05-27T03:08:02;103023.25;;;20.69;44.63
11395;BME280;5753;54.402;10.220;2023-05-27T03:10:32;103015.50;;;20.82;44.47
11395;BME280;5753;54.402;10.220;2023-05-27T03:12:58;103006.00;;;20.96;44.79
11395;BME280;5753;54.402;10.220;2023-05-27T03:15:24;103008.84;;;20.31;45.81
11395;BME280;5753;54.402;10.220;2023-05-27T03:17:50;103009.13;;;19.78;46.99
11395;BME280;5753;54.402;10.220;2023-05-27T03:20:18;103011.56;;;20.35;45.50
11395;BME280;5753;54.402;10.220;2023-05-27T03:22:44;103011.97;;;20.80;45.14
11395;BME280;5753;54.402;10.220;2023-05-27T03:25:11;103012.69;;;20.59;45.38
11395;BME280;5753;54.402;10.220;2023-05-27T03:27:37;103014.53;;;20.73;45.24
11395;BME280;5753;54.402;10.220;2023-05-27T03:30:04;103019.41;;;20.34;46.14
11395;BME280;5753;54.402;10.220;2023-05-27T03:32:31;103014.41;;;20.58;45.84
11395;BME280;5753;54.402;10.220;2023-05-27T03:34:57;103016.34;;;20.81;45.29
11395;BME280;5753;54.402;10.220;2023-05-27T03:37:23;103017.06;;;19.86;47.58
11395;BME280;5753;54.402;10.220;2023-05-27T03:39:49;103017.22;;;19.95;47.11
11395;BME280;5753;54.402;10.220;2023-05-27T03:42:15;103015.59;;;20.91;44.97
11395;BME280;5753;54.402;10.220;2023-05-27T03:44:41;103022.41;;;20.73;45.07
11395;BME280;5753;54.402;10.220;2023-05-27T03:47:07;103033.22;;;20.24;46.28
11395;BME280;5753;54.402;10.220;2023-05-27T03:49:33;103019.28;;;20.25;47.38
11395;BME280;5753;54.402;10.220;2023-05-27T03:51:59;103015.66;;;21.01;44.93
11395;BME280;5753;54.402;10.220;2023-05-27T03:54:25;103021.00;;;21.18;44.64
11395;BME280;5753;54.402;10.220;2023-05-27T03:56:51;103019.53;;;21.57;43.78
11395;BME280;5753;54.402;10.220;2023-05-27T03:59:18;103013.53;;;21.82;43.95
11395;BME280;5753;54.402;10.220;2023-05-27T04:01:44;103007.31;;;21.68;43.45
11395;BME280;5753;54.402;10.220;2023-05-27T04:04:10;103008.34;;;21.99;42.62
11395;BME280;5753;54.402;10.220;2023-05-27T04:06:36;103014.41;;;21.84;42.62
11395;BME280;5753;54.402;10.220;2023-05-27T04:09:03;103011.81;;;21.93;42.94
11395;BME280;5753;54.402;10.220;2023-05-27T04:11:30;103006.59;;;22.03;42.98
11395;BME280;5753;54.402;10.220;2023-05-27T04:13:56;103015.84;;;21.24;44.62
11395;BME280;5753;54.402;10.220;2023-05-27T04:16:23;103012.84;;;22.29;43.05
11395;BME280;5753;54.402;10.220;2023-05-27T04:18:51;103020.44;;;21.62;43.88
11395;BME280;5753;54.402;10.220;2023-05-27T04:21:20;103021.13;;;21.29;44.79
11395;BME280;5753;54.402;10.220;2023-05-27T04:23:47;103017.53;;;21.22;45.23
11395;BME280;5753;54.402;10.220;2023-05-27T04:26:13;103029.31;;;20.62;46.46
11395;BME280;5753;54.402;10.220;2023-05-27T04:28:40;103021.69;;;20.90;45.95
11395;BME280;5753;54.402;10.220;2023-05-27T04:31:07;103026.19;;;21.06;46.21
11395;BME280;5753;54.402;10.220;2023-05-27T04:33:39;103023.72;;;21.27;44.74
11395;BME280;5753;54.402;10.220;2023-05-27T04:36:06;103027.19;;;20.31;46.51
11395;BME280;5753;54.402;10.220;2023-05-27T04:38:32;103034.50;;;20.59;46.40
11395;BME280;5753;54.402;10.220;2023-05-27T04:40:59;103025.66;;;21.54;44.39
11395;BME280;5753;54.402;10.220;2023-05-27T04:43:26;103028.56;;;22.20;43.09
11395;BME280;5753;54.402;10.220;2023-05-27T04:45:53;103023.78;;;21.30;45.29
11395;BME280;5753;54.402;10.220;2023-05-27T04:48:19;103024.91;;;21.81;44.50
11395;BME280;5753;54.402;10.220;2023-05-27T04:50:49;103018.97;;;22.25;43.31
11395;BME280;5753;54.402;10.220;2023-05-27T04:53:19;103012.84;;;22.29;42.79
11395;BME280;5753;54.402;10.220;2023-05-27T04:55:45;103018.09;;;22.47;42.63
11395;BME280;5753;54.402;10.220;2023-05-27T04:58:12;103014.63;;;22.73;41.99
11395;BME280;5753;54.402;10.220;2023-05-27T05:00:38;103015.47;;;22.61;42.08
11395;BME280;5753;54.402;10.220;2023-05-27T05:03:13;103015.38;;;22.06;43.04
11395;BME280;5753;54.402;10.220;2023-05-27T05:05:49;103018.69;;;21.64;44.30
11395;BME280;5753;54.402;10.220;2023-05-27T05:08:18;103024.25;;;20.84;45.84
11395;BME280;5753;54.402;10.220;2023-05-27T05:10:45;103013.44;;;21.64;44.59
11395;BME280;5753;54.402;10.220;2023-05-27T05:13:11;103012.59;;;21.71;44.55
11395;BME280;5753;54.402;10.220;2023-05-27T05:15:38;103005.53;;;21.58;44.04
11395;BME280;5753;54.402;10.220;2023-05-27T05:18:04;103021.41;;;21.76;44.21
11395;BME280;5753;54.402;10.220;2023-05-27T05:20:30;103014.44;;;21.92;43.73
11395;BME280;5753;54.402;10.220;2023-05-27T05:22:56;103004.91;;;22.14;42.81
11395;BME280;5753;54.402;10.220;2023-05-27T05:25:22;103008.97;;;21.42;44.59
11395;BME280;5753;54.402;10.220;2023-05-27T05:27:48;103020.22;;;21.28;44.75
11395;BME280;5753;54.402;10.220;2023-05-27T05:30:14;103020.94;;;21.06;45.96
11395;BME280;5753;54.402;10.220;2023-05-27T05:32:41;103010.91;;;21.79;44.21
11395;BME280;5753;54.402;10.220;2023-05-27T05:35:07;103019.66;;;21.81;43.78
11395;BME280;5753;54.402;10.220;2023-05-27T05:37:33;103012.72;;;22.02;43.35
11395;BME280;5753;54.402;10.220;2023-05-27T05:39:59;103012.34;;;21.24;45.21
11395;BME280;5753;54.402;10.220;2023-05-27T05:42:25;103021.22;;;21.46;45.16
11395;BME280;5753;54.402;10.220;2023-05-27T05:44:52;103007.00;;;21.16;45.52
11395;BME280;5753;54.402;10.220;2023-05-27T05:47:18;103022.44;;;22.22;44.00
11395;BME280;5753;54.402;10.220;2023-05-27T05:49:45;103012.00;;;23.18;41.77
11395;BME280;5753;54.402;10.220;2023-05-27T05:52:11;103014.50;;;23.70;41.01
11395;BME280;5753;54.402;10.220;2023-05-27T05:54:37;103010.13;;;23.62;41.34
11395;BME280;5753;54.402;10.220;2023-05-27T05:57:03;103004.06;;;22.30;43.13
11395;BME280;5753;54.402;10.220;2023-05-27T05:59:29;103008.41;;;22.20;43.70
11395;BME280;5753;54.402;10.220;2023-05-27T06:01:55;103019.03;;;22.90;42.40
11395;BME280;5753;54.402;10.220;2023-05-27T06:04:21;103016.34;;;23.38;41.12
11395;BME280;5753;54.402;10.220;2023-05-27T06:06:47;103015.31;;;23.89;39.93
11395;BME280;5753;54.402;10.220;2023-05-27T06:09:13;103016.28;;;23.68;40.72
11395;BME280;5753;54.402;10.220;2023-05-27T06:11:39;103031.97;;;23.90;40.12
11395;BME280;5753;54.402;10.220;2023-05-27T06:14:06;103030.09;;;24.16;39.57
11395;BME280;5753;54.402;10.220;2023-05-27T06:16:33;103014.59;;;23.37;40.34
11395;BME280;5753;54.402;10.220;2023-05-27T06:19:02;103009.75;;;24.41;38.87
11395;BME280;5753;54.402;10.220;2023-05-27T06:21:28;103026.38;;;24.51;37.80
11395;BME280;5753;54.402;10.220;2023-05-27T06:23:56;103037.13;;;24.14;38.89
11395;BME280;5753;54.402;10.220;2023-05-27T06:26:22;103028.44;;;23.94;38.12
11395;BME280;5753;54.402;10.220;2023-05-27T06:28:48;103014.22;;;24.31;37.33
11395;BME280;5753;54.402;10.220;2023-05-27T06:31:14;103029.59;;;24.89;37.20
11395;BME280;5753;54.402;10.220;2023-05-27T06:33:43;103042.91;;;25.67;36.05
11395;BME280;5753;54.402;10.220;2023-05-27T06:36:09;103029.53;;;24.98;36.85
11395;BME280;5753;54.402;10.220;2023-05-27T06:38:36;103025.06;;;23.49;39.11
11395;BME280;5753;54.402;10.220;2023-05-27T06:41:02;103032.50;;;24.54;37.01
11395;BME280;5753;54.402;10.220;2023-05-27T06:43:28;103034.03;;;24.83;37.74
11395;BME280;5753;54.402;10.220;2023-05-27T06:45:54;103033.72;;;23.91;38.39
11395;BME280;5753;54.402;10.220;2023-05-27T06:48:20;103028.59;;;23.57;38.60
11395;BME280;5753;54.402;10.220;2023-05-27T06:50:46;103036.44;;;23.75;38.70
11395;BME280;5753;54.402;10.220;2023-05-27T06:53:12;103041.50;;;24.12;37.77
11395;BME280;5753;54.402;10.220;2023-05-27T06:55:39;103026.38;;;24.51;37.41
11395;BME280;5753;54.402;10.220;2023-05-27T06:58:05;103026.59;;;24.14;37.95
11395;BME280;5753;54.402;10.220;2023-05-27T07:00:32;103036.09;;;24.44;37.15
11395;BME280;5753;54.402;10.220;2023-05-27T07:02:58;103047.69;;;24.08;37.49
11395;BME280;5753;54.402;10.220;2023-05-27T07:05:26;103032.97;;;23.44;39.06
11395;BME280;5753;54.402;10.220;2023-05-27T07:07:53;103025.44;;;25.56;35.85
11395;BME280;5753;54.402;10.220;2023-05-27T07:10:19;103032.00;;;25.18;35.67
11395;BME280;5753;54.402;10.220;2023-05-27T07:12:45;103038.25;;;25.09;35.41
11395;BME280;5753;54.402;10.220;2023-05-27T07:15:11;103030.31;;;25.88;34.13
11395;BME280;5753;54.402;10.220;2023-05-27T07:17:37;103018.47;;;25.47;35.32
11395;BME280;5753;54.402;10.220;2023-05-27T07:20:03;103028.44;;;25.96;34.70
11395;BME280;5753;54.402;10.220;2023-05-27T07:22:30;103035.88;;;25.65;34.64
11395;BME280;5753;54.402;10.220;2023-05-27T07:24:57;103036.69;;;24.81;36.39
11395;BME280;5753;54.402;10.220;2023-05-27T07:27:23;103021.63;;;25.80;35.04
11395;BME280;5753;54.402;10.220;2023-05-27T07:29:49;103033.50;;;25.40;35.46
11395;BME280;5753;54.402;10.220;2023-05-27T07:32:15;103037.53;;;25.77;34.50
11395;BME280;5753;54.402;10.220;2023-05-27T07:34:41;103029.50;;;25.84;34.01
11395;BME280;5753;54.402;10.220;2023-05-27T07:37:07;103020.41;;;26.07;33.60
11395;BME280;5753;54.402;10.220;2023-05-27T07:39:33;103016.84;;;24.31;36.96
11395;BME280;5753;54.402;10.220;2023-05-27T07:41:59;103021.50;;;23.80;37.99
11395;BME280;5753;54.402;10.220;2023-05-27T07:44:25;103022.41;;;25.09;35.91
11395;BME280;5753;54.402;10.220;2023-05-27T07:46:53;103024.09;;;25.17;35.97
11395;BME280;5753;54.402;10.220;2023-05-27T07:49:19;103018.50;;;24.46;36.76
11395;BME280;5753;54.402;10.220;2023-05-27T07:51:46;103014.69;;;24.82;35.84
11395;BME280;5753;54.402;10.220;2023-05-27T07:54:12;103020.53;;;25.19;35.55
11395;BME280;5753;54.402;10.220;2023-05-27T07:56:38;103015.31;;;25.16;35.04
11395;BME280;5753;54.402;10.220;2023-05-27T07:59:04;102999.59;;;25.01;35.66
11395;BME280;5753;54.402;10.220;2023-05-27T08:01:31;103017.47;;;24.68;35.22
11395;BME280;5753;54.402;10.220;2023-05-27T08:03:58;103019.47;;;24.34;36.55
11395;BME280;5753;54.402;10.220;2023-05-27T08:06:25;103002.50;;;25.59;34.84
11395;BME280;5753;54.402;10.220;2023-05-27T08:08:51;102999.78;;;24.78;35.54
11395;BME280;5753;54.402;10.220;2023-05-27T08:11:18;103002.53;;;25.56;34.71
11395;BME280;5753;54.402;10.220;2023-05-27T08:13:44;103006.19;;;24.45;36.55
11395;BME280;5753;54.402;10.220;2023-05-27T08:16:10;102995.16;;;26.96;32.86
11395;BME280;5753;54.402;10.220;2023-05-27T08:18:37;102989.84;;;27.00;32.66
11395;BME280;5753;54.402;10.220;2023-05-27T08:21:03;102996.53;;;25.40;34.78
11395;BME280;5753;54.402;10.220;2023-05-27T08:23:29;102997.38;;;25.44;34.32
11395;BME280;5753;54.402;10.220;2023-05-27T08:25:56;102989.38;;;26.19;33.66
11395;BME280;5753;54.402;10.220;2023-05-27T08:28:22;102980.53;;;26.76;32.51
11395;BME280;5753;54.402;10.220;2023-05-27T08:30:48;102974.88;;;26.97;32.32
11395;BME280;5753;54.402;10.220;2023-05-27T08:33:14;102986.47;;;26.88;32.66
11395;BME280;5753;54.402;10.220;2023-05-27T08:35:40;102977.78;;;27.73;31.35
11395;BME280;5753;54.402;10.220;2023-05-27T08:38:06;102975.16;;;26.80;32.29
11395;BME280;5753;54.402;10.220;2023-05-27T08:40:32;102974.59;;;26.63;32.34
11395;BME280;5753;54.402;10.220;2023-05-27T08:42:59;102974.59;;;27.12;32.25
11395;BME280;5753;54.402;10.220;2023-05-27T08:45:25;102967.69;;;27.48;31.36
11395;BME280;5753;54.402;10.220;2023-05-27T08:47:53;102965.00;;;26.56;32.95
11395;BME280;5753;54.402;10.220;2023-05-27T08:50:19;102965.69;;;26.67;33.07
11395;BME280;5753;54.402;10.220;2023-05-27T08:52:49;102962.81;;;26.25;33.96
11395;BME280;5753;54.402;10.220;2023-05-27T08:55:20;102954.09;;;26.74;32.84
11395;BME280;5753;54.402;10.220;2023-05-27T08:57:56;102952.25;;;28.07;31.59
11395;BME280;5753;54.402;10.220;2023-05-27T09:00:23;102948.84;;;28.02;31.21
11395;BME280;5753;54.402;10.220;2023-05-27T09:02:50;102948.47;;;27.37;31.73
11395;BME280;5753;54.402;10.220;2023-05-27T09:05:16;102939.84;;;27.29;32.79
11395;BME280;5753;54.402;10.220;2023-05-27T09:07:44;102937.19;;;28.09;30.92
11395;BME280;5753;54.402;10.220;2023-05-27T09:10:10;102940.25;;;27.93;31.48
11395;BME280;5753;54.402;10.220;2023-05-27T09:12:37;102938.44;;;27.95;31.11
11395;BME280;5753;54.402;10.220;2023-05-27T09:15:03;102934.94;;;28.30;30.31
11395;BME280;5753;54.402;10.220;2023-05-27T09:17:30;102936.16;;;27.36;32.44
11395;BME280;5753;54.402;10.220;2023-05-27T09:19:57;102934.84;;;26.12;33.66
11395;BME280;5753;54.402;10.220;2023-05-27T09:22:25;102930.09;;;27.73;31.63
11395;BME280;5753;54.402;10.220;2023-05-27T09:24:54;102926.66;;;27.26;31.98
11395;BME280;5753;54.402;10.220;2023-05-27T09:27:31;102927.44;;;27.31;32.46
11395;BME280;5753;54.402;10.220;2023-05-27T09:30:05;102928.84;;;27.87;31.85
11395;BME280;5753;54.402;10.220;2023-05-27T09:32:34;102927.91;;;27.51;31.87
11395;BME280;5753;54.402;10.220;2023-05-27T09:35:01;102931.09;;;28.06;30.65
11395;BME280;5753;54.402;10.220;2023-05-27T09:37:29;102920.28;;;29.15;28.58
11395;BME280;5753;54.402;10.220;2023-05-27T09:40:09;102915.25;;;28.03;30.57
11395;BME280;5753;54.402;10.220;2023-05-27T09:42:46;102916.25;;;28.68;30.47
11395;BME280;5753;54.402;10.220;2023-05-27T09:45:17;102917.31;;;29.85;28.09
11395;BME280;5753;54.402;10.220;2023-05-27T09:47:51;102914.50;;;29.62;28.53
11395;BME280;5753;54.402;10.220;2023-05-27T09:50:19;102911.47;;;28.13;30.85
11395;BME280;5753;54.402;10.220;2023-05-27T09:52:47;102917.88;;;27.66;31.30
11395;BME280;5753;54.402;10.220;2023-05-27T09:55:14;102922.03;;;28.51;30.61
11395;BME280;5753;54.402;10.220;2023-05-27T09:57:41;102918.47;;;28.83;29.54
11395;BME280;5753;54.402;10.220;2023-05-27T10:00:09;102917.78;;;28.07;30.50
11395;BME280;5753;54.402;10.220;2023-05-27T10:02:44;102920.69;;;27.58;30.86
11395;BME280;5753;54.402;10.220;2023-05-27T10:05:13;102920.31;;;29.45;29.51
11395;BME280;5753;54.402;10.220;2023-05-27T10:07:44;102917.72;;;29.43;29.01
11395;BME280;5753;54.402;10.220;2023-05-27T10:10:12;102910.72;;;29.39;28.64
11395;BME280;5753;54.402;10.220;2023-05-27T10:12:43;102918.09;;;28.99;28.45
11395;BME280;5753;54.402;10.220;2023-05-27T10:15:20;102917.59;;;28.83;28.71
11395;BME280;5753;54.402;10.220;2023-05-27T10:17:55;102920.53;;;28.04;29.65
11395;BME280;5753;54.402;10.220;2023-05-27T10:20:31;102906.16;;;28.13;29.53
11395;BME280;5753;54.402;10.220;2023-05-27T10:23:16;102916.66;;;27.80;29.38
11395;BME280;5753;54.402;10.220;2023-05-27T10:25:51;102903.41;;;28.87;28.08
11395;BME280;5753;54.402;10.220;2023-05-27T10:28:28;102895.66;;;28.08;29.59
11395;BME280;5753;54.402;10.220;2023-05-27T10:31:14;102898.41;;;28.73;28.62
11395;BME280;5753;54.402;10.220;2023-05-27T10:33:47;102908.22;;;29.04;28.24
11395;BME280;5753;54.402;10.220;2023-05-27T10:36:26;102899.91;;;28.15;30.32
11395;BME280;5753;54.402;10.220;2023-05-27T10:41:42;102891.50;;;29.00;28.38
11395;BME280;5753;54.402;10.220;2023-05-27T10:44:09;102898.13;;;27.79;29.78
11395;BME280;5753;54.402;10.220;2023-05-27T10:46:41;102896.94;;;27.53;30.25
11395;BME280;5753;54.402;10.220;2023-05-27T10:49:23;102886.28;;;29.86;27.24
11395;BME280;5753;54.402;10.220;2023-05-27T10:51:49;102884.94;;;29.71;26.63
11395;BME280;5753;54.402;10.220;2023-05-27T10:54:16;102878.75;;;30.25;26.35
11395;BME280;5753;54.402;10.220;2023-05-27T10:56:51;102883.16;;;29.99;26.43
11395;BME280;5753;54.402;10.220;2023-05-27T10:59:22;102870.38;;;29.84;26.93
11395;BME280;5753;54.402;10.220;2023-05-27T11:01:52;102876.19;;;29.95;27.43
11395;BME280;5753;54.402;10.220;2023-05-27T11:04:22;102880.25;;;28.58;28.25
11395;BME280;5753;54.402;10.220;2023-05-27T11:06:59;102879.19;;;28.98;27.01
11395;BME280;5753;54.402;10.220;2023-05-27T11:09:26;102873.88;;;30.13;25.95
11395;BME280;5753;54.402;10.220;2023-05-27T11:11:55;102871.47;;;30.05;25.39
11395;BME280;5753;54.402;10.220;2023-05-27T11:14:21;102870.00;;;28.46;26.59
11395;BME280;5753;54.402;10.220;2023-05-27T11:16:48;102863.81;;;28.76;25.58
11395;BME280;5753;54.402;10.220;2023-05-27T11:19:18;102876.66;;;28.93;24.48
11395;BME280;5753;54.402;10.220;2023-05-27T11:21:47;102870.81;;;28.48;26.18
11395;BME280;5753;54.402;10.220;2023-05-27T11:24:17;102857.47;;;30.25;23.42
11395;BME280;5753;54.402;10.220;2023-05-27T11:26:45;102858.53;;;29.66;23.59
11395;BME280;5753;54.402;10.220;2023-05-27T11:29:13;102862.13;;;30.69;23.00
11395;BME280;5753;54.402;10.220;2023-05-27T11:31:39;102853.97;;;30.74;23.17
11395;BME280;5753;54.402;10.220;2023-05-27T11:34:16;102845.22;;;30.70;23.17
11395;BME280;5753;54.402;10.220;2023-05-27T11:36:45;102846.06;;;30.96;22.45
11395;BME280;5753;54.402;10.220;2023-05-27T11:39:14;102841.25;;;30.82;23.56
11395;BME280;5753;54.402;10.220;2023-05-27T11:41:50;102838.09;;;29.95;23.75
11395;BME280;5753;54.402;10.220;2023-05-27T11:44:17;102834.25;;;30.55;23.35
11395;BME280;5753;54.402;10.220;2023-05-27T11:46:45;102836.38;;;29.66;24.14
11395;BME280;5753;54.402;10.220;2023-05-27T11:49:15;102835.41;;;29.40;25.36
11395;BME280;5753;54.402;10.220;2023-05-27T11:56:47;102821.22;;;30.95;22.83
11395;BME280;5753;54.402;10.220;2023-05-27T11:59:14;102813.28;;;31.17;23.01
11395;BME280;5753;54.402;10.220;2023-05-27T12:01:44;102813.28;;;32.45;22.11
11395;BME280;5753;54.402;10.220;2023-05-27T12:04:10;102810.88;;;32.39;21.76
11395;BME280;5753;54.402;10.220;2023-05-27T12:06:37;102815.25;;;34.91;20.08
11395;BME280;5753;54.402;10.220;2023-05-27T12:09:07;102802.06;;;35.20;20.23
11395;BME280;5753;54.402;10.220;2023-05-27T12:11:34;102797.47;;;33.90;18.75
11395;BME280;5753;54.402;10.220;2023-05-27T12:14:01;102797.88;;;35.91;17.99
11395;BME280;5753;54.402;10.220;2023-05-27T12:16:27;102789.28;;;37.41;17.68
11395;BME280;5753;54.402;10.220;2023-05-27T12:18:54;102787.09;;;36.07;15.38
11395;BME280;5753;54.402;10.220;2023-05-27T12:21:20;102783.16;;;36.98;15.92
11395;BME280;5753;54.402;10.220;2023-05-27T12:23:47;102778.50;;;37.14;15.73
11395;BME280;5753;54.402;10.220;2023-05-27T12:26:15;102776.03;;;38.80;15.24
11395;BME280;5753;54.402;10.220;2023-05-27T12:28:41;102766.16;;;39.63;14.61
11395;BME280;5753;54.402;10.220;2023-05-27T12:31:08;102770.00;;;40.51;13.39
11395;BME280;5753;54.402;10.220;2023-05-27T12:33:34;102765.56;;;38.75;13.31
11395;BME280;5753;54.402;10.220;2023-05-27T12:36:01;102754.25;;;38.57;13.36
11395;BME280;5753;54.402;10.220;2023-05-27T12:38:28;102748.38;;;38.01;13.32
11395;BME280;5753;54.402;10.220;2023-05-27T12:40:54;102751.09;;;39.37;12.44
11395;BME280;5753;54.402;10.220;2023-05-27T12:43:24;102743.25;;;39.45;12.42
11395;BME280;5753;54.402;10.220;2023-05-27T12:45:50;102744.16;;;40.58;11.21
11395;BME280;5753;54.402;10.220;2023-05-27T12:48:16;102733.38;;;41.66;11.13
11395;BME280;5753;54.402;10.220;2023-05-27T12:50:43;102736.38;;;39.41;11.20
11395;BME280;5753;54.402;10.220;2023-05-27T12:53:10;102738.47;;;39.13;12.28
11395;BME280;5753;54.402;10.220;2023-05-27T12:55:36;102740.34;;;40.83;12.27
11395;BME280;5753;54.402;10.220;2023-05-27T12:58:03;102729.41;;;40.85;11.56
11395;BME280;5753;54.402;10.220;2023-05-27T13:00:29;102727.63;;;39.72;13.74
11395;BME280;5753;54.402;10.220;2023-05-27T13:02:57;102722.47;;;38.62;14.41
11395;BME280;5753;54.402;10.220;2023-05-27T13:05:23;102722.66;;;39.44;13.54
11395;BME280;5753;54.402;10.220;2023-05-27T13:08:00;102722.22;;;39.72;13.68
11395;BME280;5753;54.402;10.220;2023-05-27T13:10:28;102719.81;;;39.10;14.46